createdAt,value
2022-09-15T00:02:07.711Z,1.63
2022-09-15T00:04:42.244Z,1.23
2022-09-15T00:07:10.400Z,1.35
2022-09-15T00:09:40.010Z,1.23
2022-09-15T00:12:08.452Z,1.13
2022-09-15T00:14:36.418Z,1.05
2022-09-15T00:17:06.059Z,1.38
2022-09-15T00:19:37.251Z,1.30
2022-09-15T00:22:05.594Z,1.10
2022-09-15T00:24:36.010Z,1.10
2022-09-15T00:27:04.077Z,1.20
2022-09-15T00:29:35.861Z,1.17
2022-09-15T00:32:06.611Z,1.45
2022-09-15T00:34:34.614Z,1.13
2022-09-15T00:37:03.658Z,1.20
2022-09-15T00:39:31.685Z,1.77
2022-09-15T00:41:59.580Z,1.40
2022-09-15T00:44:47.857Z,1.40
2022-09-15T00:47:19.699Z,1.77
2022-09-15T00:49:49.737Z,1.77
2022-09-15T00:52:22.096Z,1.92
2022-09-15T00:57:27.030Z,1.70
2022-09-15T00:59:57.525Z,1.95
2022-09-15T01:02:30.810Z,1.95
2022-09-15T01:05:01.276Z,1.60
2022-09-15T01:07:33.891Z,1.67
2022-09-15T01:10:07.035Z,1.80
2022-09-15T01:12:37.171Z,1.88
2022-09-15T01:15:06.696Z,1.95
2022-09-15T01:17:46.728Z,1.90
2022-09-15T01:20:35.302Z,1.60
2022-09-15T01:23:26.669Z,1.65
2022-09-15T01:26:27.707Z,1.98
2022-09-15T01:29:15.613Z,1.60
2022-09-15T01:32:11.541Z,1.90
2022-09-15T01:34:46.016Z,1.60
2022-09-15T01:37:19.367Z,1.70
2022-09-15T01:39:50.483Z,2.00
2022-09-15T01:42:20.547Z,1.60
2022-09-15T01:44:53.458Z,1.50
2022-09-15T01:47:24.405Z,1.40
2022-09-15T01:49:55.013Z,1.40
2022-09-15T01:52:25.399Z,1.80
2022-09-15T01:54:58.036Z,1.63
2022-09-15T01:57:28.705Z,1.80
2022-09-15T01:59:57.297Z,1.52
2022-09-15T02:02:32.302Z,1.58
2022-09-15T02:05:05.980Z,1.48
2022-09-15T02:07:47.163Z,1.45
2022-09-15T02:10:21.992Z,1.48
2022-09-15T02:12:58.321Z,1.50
2022-09-15T02:15:30.153Z,1.30
2022-09-15T02:18:10.509Z,1.48
2022-09-15T02:20:49.964Z,1.38
2022-09-15T02:23:28.732Z,1.48
2022-09-15T02:26:05.214Z,1.33
2022-09-15T02:28:36.599Z,1.40
2022-09-15T02:31:10.320Z,1.30
2022-09-15T02:33:44.216Z,1.23
2022-09-15T02:36:14.653Z,1.63
2022-09-15T02:38:48.299Z,1.35
2022-09-15T02:41:16.043Z,1.33
2022-09-15T02:43:47.955Z,1.20
2022-09-15T02:46:16.856Z,1.33
2022-09-15T02:48:56.513Z,1.20
2022-09-15T02:51:24.562Z,1.38
2022-09-15T02:53:53.331Z,1.33
2022-09-15T02:56:21.247Z,1.25
2022-09-15T02:58:51.558Z,1.60
2022-09-15T03:01:20.602Z,1.45
2022-09-15T03:03:49.961Z,1.40
2022-09-15T03:06:21.199Z,1.40
2022-09-15T03:09:00.228Z,1.42
2022-09-15T03:11:30.192Z,1.27
2022-09-15T03:14:00.336Z,1.63
2022-09-15T03:16:32.624Z,1.60
2022-09-15T03:21:31.121Z,1.42
2022-09-15T03:24:00.783Z,1.40
2022-09-15T03:26:28.876Z,1.35
2022-09-15T03:28:56.782Z,1.50
2022-09-15T03:31:24.673Z,1.30
2022-09-15T03:33:56.117Z,1.40
2022-09-15T03:36:25.403Z,1.10
2022-09-15T03:38:53.344Z,1.08
2022-09-15T03:41:21.100Z,1.42
2022-09-15T03:43:49.186Z,1.40
2022-09-15T03:46:17.997Z,1.50
2022-09-15T03:48:47.450Z,1.23
2022-09-15T03:51:15.680Z,1.10
2022-09-15T03:53:46.161Z,1.48
2022-09-15T03:56:25.882Z,1.25
2022-09-15T03:58:55.035Z,1.65
2022-09-15T04:01:23.532Z,1.15
2022-09-15T04:03:52.043Z,1.33
2022-09-15T04:06:21.374Z,1.55
2022-09-15T04:08:51.361Z,1.27
2022-09-15T04:11:20.713Z,1.55
2022-09-15T04:13:48.929Z,1.40
2022-09-15T04:16:23.401Z,1.40
2022-09-15T04:18:51.679Z,1.40
2022-09-15T04:21:21.805Z,1.45
2022-09-15T04:23:55.337Z,1.23
2022-09-15T04:26:27.507Z,1.10
2022-09-15T04:28:55.616Z,1.20
2022-09-15T04:31:23.814Z,1.73
2022-09-15T04:33:54.042Z,1.20
2022-09-15T04:36:24.374Z,1.45
2022-09-15T04:38:55.684Z,1.40
2022-09-15T04:41:24.067Z,1.40
2022-09-15T04:44:01.770Z,1.27
2022-09-15T04:46:31.945Z,1.20
2022-09-15T04:49:00.088Z,1.52
2022-09-15T04:51:36.318Z,1.38
2022-09-15T04:54:05.864Z,1.40
2022-09-15T04:56:35.148Z,1.33
2022-09-15T04:59:04.310Z,1.20
2022-09-15T05:01:37.452Z,1.83
2022-09-15T05:04:06.086Z,1.38
2022-09-15T05:06:35.141Z,1.50
2022-09-15T05:09:10.051Z,1.85
2022-09-15T05:11:39.117Z,1.92
2022-09-15T05:14:08.130Z,1.63
2022-09-15T05:16:40.168Z,1.35
2022-09-15T05:19:08.374Z,1.85
2022-09-15T05:21:37.282Z,1.13
2022-09-15T05:24:13.636Z,1.70
2022-09-15T05:26:41.773Z,1.95
2022-09-15T05:29:11.354Z,1.38
2022-09-15T05:31:39.164Z,1.60
2022-09-15T05:34:11.426Z,1.90
2022-09-15T05:36:39.315Z,1.80
2022-09-15T05:39:08.709Z,2.03
2022-09-15T05:41:41.653Z,1.83
2022-09-15T05:44:11.569Z,1.60
2022-09-15T05:46:39.661Z,1.27
2022-09-15T05:49:11.696Z,1.30
2022-09-15T05:51:39.976Z,1.40
2022-09-15T05:54:13.011Z,1.75
2022-09-15T05:56:43.335Z,1.02
2022-09-15T05:59:13.212Z,1.40
2022-09-15T06:01:42.607Z,1.45
2022-09-15T06:04:12.483Z,1.30
2022-09-15T06:06:45.570Z,1.35
2022-09-15T06:09:16.258Z,2.45
2022-09-15T06:11:44.355Z,1.13
2022-09-15T06:14:18.177Z,1.30
2022-09-15T06:16:48.789Z,1.55
2022-09-15T06:19:20.114Z,1.52
2022-09-15T06:21:51.040Z,1.75
2022-09-15T06:24:32.871Z,1.92
2022-09-15T06:27:46.008Z,1.87
2022-09-15T06:30:37.723Z,1.60
2022-09-15T06:35:55.897Z,1.70
2022-09-15T06:38:32.942Z,2.17
2022-09-15T06:41:10.371Z,1.65
2022-09-15T06:43:41.086Z,1.90
2022-09-15T06:46:11.579Z,1.98
2022-09-15T06:48:41.083Z,1.83
2022-09-15T06:51:15.688Z,2.08
2022-09-15T06:53:47.361Z,2.13
2022-09-15T06:56:35.818Z,1.80
2022-09-15T06:59:08.545Z,1.80
2022-09-15T07:01:38.532Z,2.13
2022-09-15T07:04:10.092Z,1.70
2022-09-15T07:06:51.362Z,1.80
2022-09-15T07:09:27.351Z,1.63
2022-09-15T07:12:01.262Z,1.90
2022-09-15T07:14:41.981Z,1.70
2022-09-15T07:17:18.742Z,1.80
2022-09-15T07:19:52.388Z,1.70
2022-09-15T07:22:22.040Z,2.35
2022-09-15T07:24:53.381Z,1.90
2022-09-15T07:27:27.019Z,1.80
2022-09-15T07:30:10.340Z,1.70
2022-09-15T07:32:40.661Z,1.90
2022-09-15T07:35:12.728Z,1.73
2022-09-15T07:37:51.403Z,1.85
2022-09-15T07:40:56.150Z,1.83
2022-09-15T07:58:10.852Z,1.67
2022-09-15T08:09:25.884Z,1.23
2022-09-15T08:19:57.205Z,1.20
2022-09-15T08:44:53.605Z,1.20
2022-09-15T08:47:56.182Z,1.48
2022-09-15T08:54:39.830Z,1.75
2022-09-15T08:57:17.078Z,1.40
2022-09-15T08:59:56.741Z,1.55
2022-09-15T09:05:56.469Z,1.40
2022-09-15T09:08:56.225Z,1.98
2022-09-15T09:11:43.416Z,1.48
2022-09-15T09:14:22.754Z,1.27
2022-09-15T09:17:07.986Z,1.20
2022-09-15T09:20:11.024Z,1.50
2022-09-15T09:25:28.375Z,2.42
2022-09-15T09:28:00.721Z,2.40
2022-09-15T09:30:32.523Z,1.75
2022-09-15T09:33:29.470Z,2.00
2022-09-15T09:36:01.327Z,2.10
2022-09-15T09:38:36.770Z,2.10
2022-09-15T09:41:50.143Z,2.20
2022-09-15T09:44:20.424Z,2.30
2022-09-15T09:46:54.374Z,3.70
2022-09-15T09:49:25.734Z,2.10
2022-09-15T09:51:59.785Z,2.30
2022-09-15T09:54:35.465Z,2.50
2022-09-15T09:57:28.435Z,2.67
2022-09-15T10:02:31.915Z,2.83
2022-09-15T10:05:20.385Z,2.97
2022-09-15T10:08:17.003Z,3.10
2022-09-15T10:11:16.909Z,3.50
2022-09-15T10:14:12.331Z,3.55
2022-09-15T10:24:02.409Z,3.38
2022-09-15T10:26:41.187Z,3.22
2022-09-15T10:30:13.709Z,3.03
2022-09-15T10:33:20.626Z,3.08
2022-09-15T10:42:55.747Z,2.97
2022-09-15T10:48:59.056Z,3.53
2022-09-15T10:55:31.898Z,3.25
2022-09-15T11:47:30.470Z,2.97
2022-09-15T11:50:05.425Z,2.75
2022-09-15T11:53:00.900Z,2.75
2022-09-15T11:55:39.061Z,2.70
2022-09-15T11:58:28.899Z,2.60
2022-09-15T12:01:30.708Z,2.70
2022-09-15T12:04:40.573Z,2.25
2022-09-15T12:07:38.375Z,2.80
2022-09-15T12:10:45.608Z,2.20
2022-09-15T12:13:59.079Z,2.40
2022-09-15T12:16:28.443Z,2.10
2022-09-15T12:19:07.723Z,1.90
2022-09-15T12:21:40.720Z,2.00
2022-09-15T12:24:22.066Z,2.28
2022-09-15T12:27:05.769Z,2.60
2022-09-15T12:29:42.653Z,2.20
2022-09-15T12:32:28.692Z,3.40
2022-09-15T12:35:07.953Z,3.60
2022-09-15T12:37:44.371Z,3.03
2022-09-15T12:40:39.078Z,3.20
2022-09-15T12:43:21.519Z,3.40
2022-09-15T12:46:02.518Z,3.25
2022-09-15T12:48:38.013Z,3.50
2022-09-15T12:51:10.872Z,4.20
2022-09-15T12:53:57.488Z,5.45
2022-09-15T12:56:40.297Z,5.70
2022-09-15T12:59:13.150Z,5.50
2022-09-15T13:01:50.718Z,4.35
2022-09-15T13:04:41.982Z,3.95
2022-09-15T13:07:48.744Z,4.43
2022-09-15T13:10:37.198Z,4.28
2022-09-15T13:13:28.819Z,4.03
2022-09-15T13:16:14.873Z,3.95
2022-09-15T13:18:46.146Z,3.75
2022-09-15T13:21:21.345Z,3.90
2022-09-15T13:23:57.173Z,4.65
2022-09-15T13:26:30.614Z,4.00
2022-09-15T13:29:03.611Z,4.03
2022-09-15T13:31:40.487Z,4.07
2022-09-15T13:41:12.641Z,3.00
2022-09-15T13:44:11.516Z,3.42
2022-09-15T13:46:53.455Z,3.53
2022-09-15T13:49:42.537Z,2.55
2022-09-15T13:52:26.963Z,2.65
2022-09-15T13:55:19.434Z,2.25
2022-09-15T14:00:49.025Z,3.08
2022-09-15T14:03:25.885Z,3.05
2022-09-15T14:05:56.854Z,2.90
2022-09-15T14:08:31.677Z,2.78
2022-09-15T14:11:03.011Z,2.60
2022-09-15T14:13:31.910Z,2.30
2022-09-15T14:16:23.630Z,2.40
2022-09-15T14:18:54.477Z,2.90
2022-09-15T14:21:25.074Z,2.75
2022-09-15T14:23:55.512Z,2.70
2022-09-15T14:26:29.572Z,2.30
2022-09-15T14:29:04.429Z,2.40
2022-09-15T14:32:11.520Z,2.20
2022-09-15T14:34:49.827Z,2.38
2022-09-15T14:37:27.615Z,2.33
2022-09-15T14:40:00.659Z,2.03
2022-09-15T14:42:32.659Z,1.83
2022-09-15T14:50:47.018Z,1.80
2022-09-15T14:53:19.159Z,1.80
2022-09-15T14:56:02.240Z,2.05
2022-09-15T14:58:42.023Z,2.10
2022-09-15T15:01:18.012Z,2.30
2022-09-15T15:04:10.301Z,1.95
2022-09-15T15:06:47.971Z,1.90
2022-09-15T15:09:34.471Z,1.83
2022-09-15T15:12:09.587Z,2.00
2022-09-15T15:14:37.950Z,1.98
2022-09-15T15:17:09.547Z,2.00
2022-09-15T15:19:42.918Z,1.90
2022-09-15T15:22:21.232Z,2.17
2022-09-15T15:24:57.785Z,2.10
2022-09-15T15:27:46.860Z,2.00
2022-09-15T15:30:29.701Z,2.35
2022-09-15T15:33:01.674Z,1.88
2022-09-15T15:35:35.898Z,1.98
2022-09-15T15:38:15.543Z,2.10
2022-09-15T15:40:55.840Z,2.00
2022-09-15T15:43:28.443Z,1.90
2022-09-15T15:46:03.381Z,2.13
2022-09-15T15:48:37.823Z,2.20
2022-09-15T15:51:23.109Z,2.30
2022-09-15T15:53:53.121Z,2.10
2022-09-15T15:56:26.134Z,2.20
2022-09-15T15:58:59.487Z,2.33
2022-09-15T16:01:27.591Z,2.00
2022-09-15T16:03:58.837Z,2.72
2022-09-15T16:06:29.766Z,1.98
2022-09-15T16:09:03.098Z,2.08
2022-09-15T16:11:34.879Z,2.13
2022-09-15T16:14:03.970Z,2.17
2022-09-15T16:16:33.433Z,2.10
2022-09-15T16:19:14.265Z,2.10
2022-09-15T16:21:51.373Z,2.10
2022-09-15T16:24:22.544Z,2.22
2022-09-15T16:26:53.895Z,2.17
2022-09-15T16:29:48.686Z,2.27
2022-09-15T16:32:19.724Z,2.05
2022-09-15T16:34:49.266Z,2.42
2022-09-15T16:37:18.900Z,2.30
2022-09-15T16:39:49.289Z,2.25
2022-09-15T16:42:17.487Z,2.22
2022-09-15T16:44:46.304Z,2.33
2022-09-15T16:47:16.507Z,2.20
2022-09-15T16:49:47.866Z,2.33
2022-09-15T16:52:17.833Z,2.33
2022-09-15T16:54:47.535Z,2.08
2022-09-15T16:57:21.751Z,2.17
2022-09-15T16:59:49.795Z,2.22
2022-09-15T17:02:22.145Z,2.53
2022-09-15T17:07:21.884Z,2.38
2022-09-15T17:09:52.847Z,2.13
2022-09-15T17:12:24.136Z,2.65
2022-09-15T17:14:52.200Z,2.80
2022-09-15T17:17:28.460Z,2.25
2022-09-15T17:19:58.837Z,2.17
2022-09-15T17:22:27.260Z,2.38
2022-09-15T17:24:56.730Z,2.80
2022-09-15T17:27:26.215Z,2.63
2022-09-15T17:29:54.230Z,3.22
2022-09-15T17:32:22.453Z,2.58
2022-09-15T17:34:51.836Z,2.53
2022-09-15T17:37:22.213Z,2.50
2022-09-15T17:39:50.610Z,2.50
2022-09-15T17:42:21.063Z,2.97
2022-09-15T17:44:53.215Z,2.83
2022-09-15T17:47:26.273Z,2.60
2022-09-15T17:49:56.320Z,2.35
2022-09-15T17:52:28.034Z,2.83
2022-09-15T17:54:56.403Z,2.75
2022-09-15T17:57:26.554Z,2.60
2022-09-15T17:59:54.631Z,2.50
2022-09-15T18:02:23.582Z,2.50
2022-09-15T18:04:57.034Z,2.95
2022-09-15T18:07:25.260Z,2.60
2022-09-15T18:09:53.150Z,3.13
2022-09-15T18:12:23.718Z,2.75
2022-09-15T18:14:53.320Z,2.80
2022-09-15T18:17:23.131Z,3.03
2022-09-15T18:19:57.686Z,2.75
2022-09-15T18:22:25.735Z,2.88
2022-09-15T18:25:08.491Z,2.90
2022-09-15T18:27:36.633Z,3.08
2022-09-15T18:30:08.726Z,3.10
2022-09-15T18:32:40.750Z,2.70
2022-09-15T18:35:18.351Z,3.50
2022-09-15T18:37:49.561Z,3.58
2022-09-15T18:40:19.326Z,3.00
2022-09-15T18:42:47.126Z,3.42
2022-09-15T18:45:18.530Z,3.05
2022-09-15T18:47:51.582Z,3.25
2022-09-15T18:50:21.866Z,3.00
2022-09-15T18:52:53.063Z,3.63
2022-09-15T18:55:35.843Z,3.55
2022-09-15T18:58:05.606Z,3.53
2022-09-15T19:00:35.517Z,3.70
2022-09-15T19:03:09.649Z,3.25
2022-09-15T19:05:43.248Z,3.38
2022-09-15T19:08:12.829Z,3.53
2022-09-15T19:10:47.669Z,3.20
2022-09-15T19:13:17.429Z,3.90
2022-09-15T19:15:53.419Z,3.58
2022-09-15T19:18:21.675Z,3.30
2022-09-15T19:20:51.104Z,3.40
2022-09-15T19:23:18.924Z,3.35
2022-09-15T19:25:46.996Z,3.50
2022-09-15T19:28:15.018Z,3.60
2022-09-15T19:30:44.185Z,4.30
2022-09-15T19:33:13.579Z,3.97
2022-09-15T19:35:46.162Z,3.45
2022-09-15T19:38:16.872Z,3.85
2022-09-15T19:40:49.967Z,3.50
2022-09-15T19:43:22.274Z,3.75
2022-09-15T19:47:08.782Z,3.78
2022-09-15T19:52:32.448Z,4.72
2022-09-15T19:55:01.973Z,4.82
2022-09-15T19:57:41.989Z,4.22
2022-09-15T20:00:12.345Z,3.90
2022-09-15T20:02:40.500Z,3.95
2022-09-15T20:05:14.974Z,3.83
2022-09-15T20:07:48.101Z,4.25
2022-09-15T20:10:16.285Z,4.03
2022-09-15T20:12:44.286Z,4.32
2022-09-15T20:15:14.206Z,4.07
2022-09-15T20:17:44.201Z,3.60
2022-09-15T20:20:13.698Z,3.58
2022-09-15T20:22:45.870Z,4.00
2022-09-15T20:25:19.710Z,4.55
2022-09-15T20:27:49.369Z,4.00
2022-09-15T20:30:17.348Z,4.03
2022-09-15T20:32:46.318Z,3.80
2022-09-15T20:35:17.653Z,3.60
2022-09-15T20:37:45.665Z,4.07
2022-09-15T20:40:26.463Z,4.43
2022-09-15T20:42:56.829Z,3.72
2022-09-15T20:45:36.479Z,3.92
2022-09-15T20:48:05.613Z,3.80
2022-09-15T20:50:37.352Z,3.88
2022-09-15T20:53:09.101Z,4.00
2022-09-15T20:55:37.164Z,4.03
2022-09-15T20:58:05.281Z,3.90
2022-09-15T21:00:36.453Z,4.30
2022-09-15T21:03:07.010Z,3.95
2022-09-15T21:05:38.769Z,4.95
2022-09-15T21:08:09.279Z,3.95
2022-09-15T21:10:39.088Z,4.10
2022-09-15T21:13:09.188Z,4.20
2022-09-15T21:15:37.149Z,3.95
2022-09-15T21:18:05.476Z,3.80
2022-09-15T21:20:33.832Z,4.15
2022-09-15T21:23:04.010Z,4.30
2022-09-15T21:25:31.967Z,4.30
2022-09-15T21:27:59.934Z,4.15
2022-09-15T21:30:29.157Z,4.18
2022-09-15T21:32:57.299Z,4.32
2022-09-15T21:35:27.225Z,3.83
2022-09-15T21:38:07.331Z,3.78
2022-09-15T21:40:35.565Z,3.80
2022-09-15T21:43:10.629Z,4.28
2022-09-15T21:45:58.609Z,4.20
2022-09-15T21:48:33.039Z,4.28
2022-09-15T21:51:03.847Z,4.05
2022-09-15T21:53:34.003Z,3.75
2022-09-15T21:56:06.148Z,4.57
2022-09-15T21:58:40.303Z,3.95
2022-09-15T22:01:12.646Z,3.85
2022-09-15T22:03:44.733Z,4.18
2022-09-15T22:06:16.021Z,4.28
2022-09-15T22:08:46.707Z,4.05
2022-09-15T22:11:15.173Z,4.28
2022-09-15T22:13:49.621Z,3.90
2022-09-15T22:16:26.295Z,4.07
2022-09-15T22:18:56.536Z,3.92
2022-09-15T22:21:37.095Z,3.88
2022-09-15T22:24:15.246Z,4.07
2022-09-15T22:26:44.199Z,3.92
2022-09-15T22:29:15.207Z,3.72
2022-09-15T22:31:59.706Z,3.97
2022-09-15T22:34:29.214Z,4.10
2022-09-15T22:36:58.302Z,3.70
2022-09-15T22:39:50.145Z,3.97
2022-09-15T22:42:15.868Z,4.00
2022-09-15T22:44:44.225Z,4.20
2022-09-15T22:47:12.416Z,3.70
2022-09-15T22:49:53.071Z,3.85
2022-09-15T22:52:28.198Z,3.97
2022-09-15T22:54:58.930Z,5.20
2022-09-15T22:57:27.012Z,3.92
2022-09-15T22:59:59.867Z,4.18
2022-09-15T23:02:28.275Z,3.72
2022-09-15T23:04:56.367Z,3.95
2022-09-15T23:07:24.350Z,3.55
2022-09-15T23:09:54.853Z,3.88
2022-09-15T23:12:26.661Z,4.07
2022-09-15T23:14:54.588Z,4.20
2022-09-15T23:17:22.863Z,3.85
2022-09-15T23:19:51.140Z,4.28
2022-09-15T23:22:21.779Z,4.28
2022-09-15T23:24:51.045Z,4.20
2022-09-15T23:27:21.913Z,4.68
2022-09-15T23:29:51.229Z,4.95
2022-09-15T23:32:20.393Z,4.63
2022-09-15T23:35:41.380Z,4.68
2022-09-15T23:38:09.216Z,4.43
2022-09-15T23:40:41.368Z,4.75
2022-09-15T23:43:09.371Z,4.95
2022-09-15T23:45:41.596Z,4.65
2022-09-15T23:48:15.147Z,4.30
2022-09-15T23:50:43.551Z,4.85
2022-09-15T23:53:11.558Z,4.95
2022-09-15T23:55:40.841Z,5.40
2022-09-15T23:58:08.937Z,4.85
